Time;durP1;ratioP1;P1;durP2;ratioP2;P2;SDS_P1;SDS_P2;PMS_P1;PMS_P2;Temp;Humidity;BMP_temperature;BMP_pressure;BME280_temperature;BME280_humidity;BME280_pressure;Samples;Min_cycle;Max_cycle;Signal;HPM_P1;HPM_P2
2022/06/23 00:01:49;;;;;;;11.68;6.35;;;;;;;;;;4993355;28;20096;-67
2022/06/23 00:04:20;;;;;;;10.63;6.03;;;;;;;;;;4992873;28;20034;-65
2022/06/23 00:07:02;;;;;;;11.27;6.13;;;;;;;;;;4992754;28;20065;-67
2022/06/23 00:09:45;;;;;;;13.50;6.28;;;;;;;;;;4993350;28;20026;-64
2022/06/23 00:12:16;;;;;;;16.45;6.57;;;;;;;;;;4992694;28;20050;-66
2022/06/23 00:14:42;;;;;;;16.35;7.43;;;;;;;;;;4993424;28;20370;-70
2022/06/23 00:17:31;;;;;;;14.43;7.05;;;;;;;;;;4992201;28;20034;-68
2022/06/23 00:20:01;;;;;;;8.82;7.07;;;;;;;;;;4993136;28;20405;-65
2022/06/23 00:22:30;;;;;;;9.98;6.68;;;;;;;;;;4992317;28;20038;-66
2022/06/23 00:25:02;;;;;;;12.80;6.18;;;;;;;;;;4991909;28;20042;-65
2022/06/23 00:27:39;;;;;;;12.33;6.57;;;;;;;;;;4992095;28;20551;-70
2022/06/23 00:30:36;;;;;;;8.80;5.95;;;;;;;;;;4992447;28;20042;-66
2022/06/23 00:33:25;;;;;;;12.95;5.47;;;;;;;;;;4995427;28;20050;-68
2022/06/23 00:35:52;;;;;;;9.48;5.80;;;;;;;;;;4991325;28;20053;-66
2022/06/23 00:38:39;;;;;;;11.10;5.78;;;;;;;;;;4992326;28;20529;-68
2022/06/23 00:41:15;;;;;;;9.70;5.68;;;;;;;;;;4992380;28;20489;-66
2022/06/23 00:43:45;;;;;;;8.90;6.15;;;;;;;;;;4994738;28;20057;-68
2022/06/23 00:46:34;;;;;;;13.00;5.97;;;;;;;;;;4996392;28;20053;-67
2022/06/23 00:49:08;;;;;;;12.90;6.68;;;;;;;;;;4996225;28;20030;-66
2022/06/23 00:51:43;;;;;;;13.02;10.40;;;;;;;;;;4995722;28;20124;-68
2022/06/23 00:54:19;;;;;;;14.48;8.70;;;;;;;;;;4996350;28;20042;-72
2022/06/23 00:56:54;;;;;;;11.95;6.97;;;;;;;;;;4995880;28;20034;-67
2022/06/23 00:59:36;;;;;;;13.02;6.95;;;;;;;;;;4996103;28;20165;-66
2022/06/23 01:02:14;;;;;;;15.57;7.30;;;;;;;;;;4995788;28;20489;-66
2022/06/23 01:04:40;;;;;;;12.98;7.63;;;;;;;;;;4995971;28;20038;-66
2022/06/23 01:08:01;;;;;;;12.68;7.05;;;;;;;;;;4995821;28;20038;-68
2022/06/23 01:10:51;;;;;;;12.88;7.00;;;;;;;;;;4981856;28;20405;-67
2022/06/23 01:13:47;;;;;;;11.93;7.20;;;;;;;;;;4995404;28;20050;-71
2022/06/23 01:16:20;;;;;;;12.48;7.82;;;;;;;;;;4994078;28;20050;-64
2022/06/23 01:19:12;;;;;;;14.13;7.65;;;;;;;;;;4995860;28;20034;-67
2022/06/23 01:21:43;;;;;;;11.90;7.70;;;;;;;;;;5004046;28;20444;-69
2022/06/23 01:24:23;;;;;;;15.93;8.23;;;;;;;;;;4995339;28;20030;-68
2022/06/23 01:27:26;;;;;;;10.10;7.40;;;;;;;;;;5000254;28;20029;-69
2022/06/23 01:30:07;;;;;;;17.85;8.15;;;;;;;;;;4995772;28;20069;-67
2022/06/23 01:32:45;;;;;;;12.93;7.85;;;;;;;;;;4995427;28;20041;-67
2022/06/23 01:35:18;;;;;;;14.25;6.55;;;;;;;;;;4995198;28;20512;-68
2022/06/23 01:37:54;;;;;;;16.85;7.25;;;;;;;;;;4998399;28;20539;-68
2022/06/23 01:40:41;;;;;;;12.52;6.95;;;;;;;;;;4995164;28;20084;-69
2022/06/23 01:43:42;;;;;;;12.73;7.15;;;;;;;;;;4995198;28;20172;-66
2022/06/23 01:46:23;;;;;;;11.45;7.00;;;;;;;;;;5007352;28;20053;-72
2022/06/23 01:49:18;;;;;;;12.80;6.78;;;;;;;;;;4995062;28;20609;-65
2022/06/23 01:51:47;;;;;;;13.75;7.50;;;;;;;;;;4979666;28;20138;-73
2022/06/23 01:54:16;;;;;;;16.80;7.53;;;;;;;;;;4974451;28;20086;-65
2022/06/23 01:57:13;;;;;;;11.80;7.20;;;;;;;;;;4975210;28;20049;-64
2022/06/23 02:00:09;;;;;;;14.48;7.95;;;;;;;;;;4974993;28;20027;-68
2022/06/23 02:02:55;;;;;;;10.57;7.25;;;;;;;;;;4994209;28;20038;-68
2022/06/23 02:05:44;;;;;;;15.85;6.85;;;;;;;;;;4986152;28;20110;-70
2022/06/23 02:08:34;;;;;;;14.02;6.93;;;;;;;;;;4975660;28;20027;-70
2022/06/23 02:11:21;;;;;;;8.73;6.70;;;;;;;;;;4975223;28;20113;-66
2022/06/23 02:14:15;;;;;;;10.10;6.72;;;;;;;;;;4975140;28;20035;-68
2022/06/23 02:17:02;;;;;;;10.55;7.28;;;;;;;;;;4974827;28;20038;-67
2022/06/23 02:19:49;;;;;;;13.15;7.43;;;;;;;;;;4993243;28;20042;-69
2022/06/23 02:22:24;;;;;;;13.35;6.95;;;;;;;;;;5009864;28;20052;-68
2022/06/23 02:25:11;;;;;;;13.85;7.15;;;;;;;;;;5013260;28;20032;-66
2022/06/23 02:27:43;;;;;;;13.23;7.43;;;;;;;;;;5006652;28;20113;-66
2022/06/23 02:30:20;;;;;;;13.65;7.47;;;;;;;;;;5013722;28;20500;-67
2022/06/23 02:33:26;;;;;;;20.25;7.13;;;;;;;;;;5013201;28;20041;-67
2022/06/23 02:36:03;;;;;;;18.10;7.88;;;;;;;;;;4993992;28;20034;-69
2022/06/23 02:38:42;;;;;;;18.20;7.88;;;;;;;;;;4993906;28;20038;-67
2022/06/23 02:41:13;;;;;;;10.98;7.10;;;;;;;;;;4998673;28;20026;-68
2022/06/23 02:44:07;;;;;;;12.68;7.05;;;;;;;;;;5013668;28;20038;-69
2022/06/23 02:46:49;;;;;;;13.70;7.38;;;;;;;;;;5012565;28;20045;-68
2022/06/23 02:49:38;;;;;;;21.70;8.88;;;;;;;;;;5013110;28;20034;-68
2022/06/23 02:52:40;;;;;;;17.88;8.27;;;;;;;;;;5002293;28;20108;-72
2022/06/23 02:55:27;;;;;;;17.45;8.35;;;;;;;;;;5009435;28;20112;-66
2022/06/23 02:57:58;;;;;;;15.10;7.30;;;;;;;;;;4993524;28;20046;-69
2022/06/23 03:00:32;;;;;;;10.65;7.32;;;;;;;;;;4995238;28;20358;-66
2022/06/23 03:03:20;;;;;;;16.52;7.30;;;;;;;;;;5010877;28;20041;-65
2022/06/23 03:05:57;;;;;;;12.95;7.13;;;;;;;;;;4995337;28;20041;-65
2022/06/23 03:08:44;;;;;;;17.90;8.15;;;;;;;;;;4992900;28;20113;-72
2022/06/23 03:11:51;;;;;;;14.02;6.85;;;;;;;;;;4993241;28;20133;-67
2022/06/23 03:14:16;;;;;;;17.90;7.28;;;;;;;;;;4993388;28;20031;-69
2022/06/23 03:16:49;;;;;;;13.43;7.05;;;;;;;;;;4997475;28;20034;-66
2022/06/23 03:19:40;;;;;;;12.23;7.10;;;;;;;;;;4993447;28;20051;-65
2022/06/23 03:22:41;;;;;;;11.27;7.07;;;;;;;;;;4982894;28;20035;-66
2022/06/23 03:25:19;;;;;;;21.15;8.20;;;;;;;;;;4990732;28;20041;-67
2022/06/23 03:27:53;;;;;;;18.23;7.60;;;;;;;;;;4975519;28;20513;-68
2022/06/23 03:30:27;;;;;;;16.48;7.70;;;;;;;;;;4973677;28;20070;-64
2022/06/23 03:33:18;;;;;;;12.18;7.70;;;;;;;;;;4972730;28;20031;-65
2022/06/23 03:35:59;;;;;;;18.67;7.38;;;;;;;;;;4973021;28;20043;-66
2022/06/23 03:41:37;;;;;;;12.35;6.93;;;;;;;;;;4973095;28;20438;-67
2022/06/23 03:44:21;;;;;;;17.55;6.63;;;;;;;;;;4973516;28;20141;-65
2022/06/23 03:47:04;;;;;;;16.42;6.93;;;;;;;;;;4973320;28;20039;-65
2022/06/23 03:50:14;;;;;;;21.57;6.90;;;;;;;;;;4973686;28;20035;-66
2022/06/23 03:52:48;;;;;;;18.65;7.07;;;;;;;;;;4990210;28;20548;-66
2022/06/23 03:55:14;;;;;;;17.45;6.53;;;;;;;;;;4974822;28;20050;-67
2022/06/23 03:57:53;;;;;;;26.83;9.68;;;;;;;;;;4972357;28;20038;-67
2022/06/23 04:00:35;;;;;;;20.50;6.75;;;;;;;;;;4983543;28;20411;-69
2022/06/23 04:03:43;;;;;;;21.80;6.93;;;;;;;;;;4991809;28;20034;-66
2022/06/23 04:06:22;;;;;;;12.05;5.85;;;;;;;;;;4991216;28;20046;-68
2022/06/23 04:09:00;;;;;;;24.42;7.63;;;;;;;;;;4992074;28;20030;-66
2022/06/23 04:11:43;;;;;;;14.20;6.03;;;;;;;;;;4992105;28;20117;-67
2022/06/23 04:14:23;;;;;;;21.38;7.28;;;;;;;;;;4992368;28;20030;-66
2022/06/23 04:16:54;;;;;;;18.35;6.85;;;;;;;;;;4989104;28;20066;-67
2022/06/23 04:19:26;;;;;;;16.80;6.20;;;;;;;;;;4991009;28;20120;-66
2022/06/23 04:22:16;;;;;;;15.50;6.70;;;;;;;;;;4991359;28;20034;-65
2022/06/23 04:24:45;;;;;;;13.30;6.57;;;;;;;;;;4992007;28;20545;-70
2022/06/23 04:27:20;;;;;;;22.52;6.93;;;;;;;;;;4992258;28;20029;-66
2022/06/23 04:29:50;;;;;;;23.27;7.10;;;;;;;;;;4991712;28;20485;-66
2022/06/23 04:32:41;;;;;;;18.13;8.50;;;;;;;;;;4991265;28;20509;-71
2022/06/23 04:35:15;;;;;;;23.08;7.40;;;;;;;;;;4991627;28;20077;-71
2022/06/23 04:37:54;;;;;;;16.27;7.72;;;;;;;;;;4991503;28;20485;-67
2022/06/23 04:40:29;;;;;;;18.02;7.75;;;;;;;;;;4991732;28;20042;-67
2022/06/23 04:43:02;;;;;;;19.25;7.07;;;;;;;;;;4991420;28;20447;-68
2022/06/23 04:45:31;;;;;;;13.15;6.75;;;;;;;;;;4991674;28;20492;-67
2022/06/23 04:48:00;;;;;;;20.73;7.65;;;;;;;;;;4992191;28;20022;-66
2022/06/23 04:50:39;;;;;;;17.88;6.72;;;;;;;;;;4991241;28;20034;-67
2022/06/23 04:53:14;;;;;;;18.08;6.90;;;;;;;;;;4997987;28;20041;-66
2022/06/23 04:55:41;;;;;;;14.02;6.65;;;;;;;;;;4991489;28;20030;-71
2022/06/23 04:58:21;;;;;;;20.45;7.07;;;;;;;;;;4991937;28;20021;-69
2022/06/23 05:00:52;;;;;;;15.95;6.60;;;;;;;;;;4992368;28;20037;-68
2022/06/23 05:03:40;;;;;;;24.70;7.07;;;;;;;;;;4992799;28;20042;-67
2022/06/23 05:06:18;;;;;;;25.63;7.28;;;;;;;;;;4992939;28;20038;-71
2022/06/23 05:08:47;;;;;;;18.83;6.93;;;;;;;;;;4992824;28;20030;-71
2022/06/23 05:11:43;;;;;;;20.83;7.03;;;;;;;;;;4992359;28;20029;-68
2022/06/23 05:14:42;;;;;;;26.52;7.70;;;;;;;;;;5006950;28;20034;-68
2022/06/23 05:17:22;;;;;;;23.70;7.55;;;;;;;;;;4994237;28;20025;-66
2022/06/23 05:19:51;;;;;;;16.73;6.50;;;;;;;;;;4992664;28;20541;-68
2022/06/23 05:22:20;;;;;;;23.85;6.88;;;;;;;;;;5002839;28;20426;-67
2022/06/23 05:24:47;;;;;;;26.60;7.20;;;;;;;;;;5005712;28;20049;-68
2022/06/23 05:27:30;;;;;;;23.27;5.30;;;;;;;;;;5011984;28;20084;-67
2022/06/23 05:30:19;;;;;;;18.08;4.93;;;;;;;;;;5013025;28;20041;-66
2022/06/23 05:32:49;;;;;;;24.00;5.40;;;;;;;;;;5003705;28;20065;-67
2022/06/23 05:35:19;;;;;;;29.70;6.47;;;;;;;;;;5014702;28;20457;-68
2022/06/23 05:38:09;;;;;;;23.70;5.50;;;;;;;;;;5015249;28;20038;-68
2022/06/23 05:40:51;;;;;;;15.10;4.20;;;;;;;;;;5015298;28;20092;-72
2022/06/23 05:43:17;;;;;;;21.67;5.80;;;;;;;;;;5015598;28;20121;-71
2022/06/23 05:45:48;;;;;;;17.85;5.25;;;;;;;;;;5015432;28;20473;-68
2022/06/23 05:48:19;;;;;;;20.13;4.80;;;;;;;;;;5015190;28;20543;-68
2022/06/23 05:50:56;;;;;;;14.32;4.50;;;;;;;;;;5015093;28;20093;-69
2022/06/23 05:53:27;;;;;;;25.08;5.25;;;;;;;;;;5015027;28;20034;-69
2022/06/23 05:56:11;;;;;;;21.33;5.18;;;;;;;;;;5015348;28;20468;-66
2022/06/23 05:58:46;;;;;;;20.55;5.30;;;;;;;;;;5015073;28;20120;-65
2022/06/23 06:01:12;;;;;;;22.80;5.28;;;;;;;;;;5015170;28;20029;-68
2022/06/23 06:03:49;;;;;;;19.10;4.35;;;;;;;;;;5014901;28;20384;-67
2022/06/23 06:06:16;;;;;;;29.02;5.47;;;;;;;;;;5014871;28;20029;-67
2022/06/23 06:11:34;;;;;;;17.77;4.68;;;;;;;;;;5014478;28;20034;-73
2022/06/23 06:14:04;;;;;;;19.88;4.97;;;;;;;;;;5014836;28;20026;-74
2022/06/23 06:16:30;;;;;;;22.55;5.20;;;;;;;;;;5007237;28;20038;-71
2022/06/23 06:18:56;;;;;;;21.83;5.38;;;;;;;;;;5003163;28;20131;-69
2022/06/23 06:21:25;;;;;;;19.77;4.80;;;;;;;;;;4994278;28;20109;-69
2022/06/23 06:24:08;;;;;;;21.15;5.35;;;;;;;;;;4994699;28;20022;-67
2022/06/23 06:26:41;;;;;;;21.10;4.82;;;;;;;;;;4994630;28;20085;-71
2022/06/23 06:29:22;;;;;;;23.58;5.85;;;;;;;;;;4994593;28;20033;-70
2022/06/23 06:31:53;;;;;;;18.63;5.13;;;;;;;;;;5009600;28;20038;-71
2022/06/23 06:34:41;;;;;;;14.07;4.85;;;;;;;;;;4994113;28;20077;-72
2022/06/23 06:37:11;;;;;;;15.05;5.20;;;;;;;;;;4994253;28;20030;-74
2022/06/23 06:39:48;;;;;;;24.23;5.60;;;;;;;;;;4994167;28;20077;-72
2022/06/23 06:42:21;;;;;;;21.20;5.30;;;;;;;;;;4993757;28;20034;-71
2022/06/23 06:44:50;;;;;;;20.55;5.28;;;;;;;;;;4994000;28;20045;-72
2022/06/23 06:47:20;;;;;;;21.15;4.95;;;;;;;;;;4994013;28;20101;-71
2022/06/23 06:49:47;;;;;;;21.20;5.65;;;;;;;;;;4993871;28;20463;-71
2022/06/23 06:52:14;;;;;;;15.10;5.10;;;;;;;;;;4993797;28;20430;-71
2022/06/23 06:54:45;;;;;;;15.85;4.68;;;;;;;;;;4993454;28;20393;-68
2022/06/23 06:57:43;;;;;;;20.88;6.28;;;;;;;;;;5002827;28;20037;-67
2022/06/23 07:00:34;;;;;;;20.73;5.13;;;;;;;;;;5031063;28;20041;-70
2022/06/23 07:03:03;;;;;;;25.00;6.00;;;;;;;;;;5007108;28;20121;-75
2022/06/23 07:05:50;;;;;;;22.27;5.68;;;;;;;;;;5012964;28;20114;-73
2022/06/23 07:08:33;;;;;;;20.15;5.75;;;;;;;;;;5013233;28;20492;-71
2022/06/23 07:11:11;;;;;;;18.08;6.15;;;;;;;;;;5013077;28;20034;-70
2022/06/23 07:13:57;;;;;;;18.98;5.82;;;;;;;;;;5009810;28;20050;-71
2022/06/23 07:16:28;;;;;;;16.08;5.93;;;;;;;;;;5012386;28;20444;-69
2022/06/23 07:19:05;;;;;;;19.70;5.57;;;;;;;;;;5012382;28;20042;-71
2022/06/23 07:21:41;;;;;;;17.42;5.78;;;;;;;;;;5012179;28;20037;-71
2022/06/23 07:24:29;;;;;;;20.65;5.35;;;;;;;;;;5010368;28;20039;-73
2022/06/23 07:27:19;;;;;;;21.38;5.85;;;;;;;;;;5009873;28;20083;-70
2022/06/23 07:30:02;;;;;;;23.65;6.22;;;;;;;;;;5002108;28;20042;-71
2022/06/23 07:33:09;;;;;;;21.38;6.18;;;;;;;;;;5010565;28;20069;-71
2022/06/23 07:35:49;;;;;;;28.23;6.20;;;;;;;;;;5028446;28;20041;-69
2022/06/23 07:38:48;;;;;;;18.40;5.25;;;;;;;;;;5013471;28;20045;-71
2022/06/23 07:41:22;;;;;;;14.52;5.47;;;;;;;;;;5011347;28;20049;-69
2022/06/23 07:44:09;;;;;;;21.27;5.20;;;;;;;;;;5011445;28;20412;-71
2022/06/23 07:46:37;;;;;;;27.40;6.53;;;;;;;;;;5011902;28;20055;-71
2022/06/23 07:49:04;;;;;;;22.67;5.18;;;;;;;;;;5006015;28;20026;-71
2022/06/23 07:51:30;;;;;;;17.05;5.60;;;;;;;;;;5011770;28;20378;-72
2022/06/23 07:53:57;;;;;;;18.17;5.32;;;;;;;;;;5011866;28;20477;-69
2022/06/23 07:56:26;;;;;;;20.17;4.65;;;;;;;;;;5012537;28;20034;-73
2022/06/23 07:59:02;;;;;;;17.70;5.63;;;;;;;;;;5012226;28;20025;-73
2022/06/23 08:01:37;;;;;;;15.02;4.07;;;;;;;;;;5011864;28;20481;-72
2022/06/23 08:04:14;;;;;;;19.48;4.60;;;;;;;;;;5012453;28;20029;-70
2022/06/23 08:06:40;;;;;;;16.13;4.45;;;;;;;;;;5012089;28;20040;-71
2022/06/23 08:09:29;;;;;;;22.30;6.00;;;;;;;;;;5012225;28;20026;-71
2022/06/23 08:16:49;;;;;;;18.77;7.30;;;;;;;;;;5005526;28;20120;-71
2022/06/23 08:17:40;;;;;;;16.50;5.70;;;;;;;;;;5004176;28;20145;-69
2022/06/23 08:20:09;;;;;;;13.75;5.10;;;;;;;;;;5011905;28;20026;-71
2022/06/23 08:22:37;;;;;;;24.55;5.50;;;;;;;;;;5012030;28;20042;-69
2022/06/23 08:25:06;;;;;;;18.20;5.20;;;;;;;;;;5012229;28;20030;-70
2022/06/23 08:27:33;;;;;;;20.95;5.25;;;;;;;;;;5011646;28;20037;-70
2022/06/23 08:30:08;;;;;;;20.40;5.28;;;;;;;;;;5011416;28;20022;-70
2022/06/23 08:32:38;;;;;;;21.08;6.55;;;;;;;;;;4992153;28;20038;-70
2022/06/23 08:35:16;;;;;;;15.18;4.50;;;;;;;;;;4992056;28;20130;-70
2022/06/23 08:38:04;;;;;;;22.38;5.30;;;;;;;;;;4992140;28;20046;-71
2022/06/23 08:41:07;;;;;;;17.17;4.53;;;;;;;;;;4998072;28;20034;-69
2022/06/23 08:43:48;;;;;;;13.07;4.57;;;;;;;;;;5010866;28;20034;-70
2022/06/23 08:46:28;;;;;;;21.48;4.18;;;;;;;;;;5009135;28;20042;-70
2022/06/23 08:49:06;;;;;;;11.50;4.40;;;;;;;;;;5000589;28;20034;-71
2022/06/23 08:52:15;;;;;;;14.45;4.28;;;;;;;;;;4994071;28;20113;-70
2022/06/23 08:55:09;;;;;;;11.38;4.43;;;;;;;;;;4988340;28;20426;-71
2022/06/23 08:57:50;;;;;;;17.60;4.43;;;;;;;;;;4988637;28;20034;-72
2022/06/23 09:00:26;;;;;;;20.55;5.00;;;;;;;;;;5002364;28;20046;-71
2022/06/23 09:03:05;;;;;;;19.55;4.30;;;;;;;;;;5001221;28;20176;-70
2022/06/23 09:05:51;;;;;;;20.95;4.55;;;;;;;;;;5014448;28;20171;-71
2022/06/23 09:08:17;;;;;;;16.25;4.47;;;;;;;;;;5012638;28;20479;-70
2022/06/23 09:11:02;;;;;;;15.32;4.38;;;;;;;;;;5005990;28;20025;-72
2022/06/23 09:13:49;;;;;;;17.20;5.03;;;;;;;;;;5013484;28;20041;-70
2022/06/23 09:16:27;;;;;;;16.25;3.83;;;;;;;;;;5004627;28;20029;-70
2022/06/23 09:19:06;;;;;;;19.67;4.10;;;;;;;;;;5011741;28;20033;-71
2022/06/23 09:21:41;;;;;;;13.48;4.43;;;;;;;;;;4994567;28;20033;-69
2022/06/23 09:24:30;;;;;;;18.65;4.72;;;;;;;;;;5001522;28;20064;-72
2022/06/23 09:27:30;;;;;;;22.67;4.38;;;;;;;;;;4993570;28;20425;-69
2022/06/23 09:30:06;;;;;;;24.20;4.72;;;;;;;;;;5012508;28;20031;-69
2022/06/23 09:33:09;;;;;;;20.58;4.55;;;;;;;;;;5006816;28;20030;-72
2022/06/23 09:36:20;;;;;;;14.60;3.80;;;;;;;;;;5004682;28;20038;-72
2022/06/23 09:38:52;;;;;;;23.45;3.90;;;;;;;;;;5004669;28;20058;-71
2022/06/23 09:41:30;;;;;;;27.88;5.30;;;;;;;;;;5011264;28;20465;-71
2022/06/23 09:44:17;;;;;;;25.73;4.80;;;;;;;;;;5010039;28;20088;-71
2022/06/23 09:46:55;;;;;;;17.50;5.10;;;;;;;;;;5003917;28;20041;-70
2022/06/23 09:49:30;;;;;;;17.23;4.53;;;;;;;;;;5000817;28;20037;-71
2022/06/23 09:52:09;;;;;;;28.98;5.10;;;;;;;;;;5003283;28;20034;-74
2022/06/23 09:54:46;;;;;;;22.85;4.38;;;;;;;;;;5002998;28;20535;-75
2022/06/23 09:57:21;;;;;;;20.85;4.30;;;;;;;;;;5011400;28;20117;-71
2022/06/23 10:00:39;;;;;;;24.40;4.50;;;;;;;;;;5013873;28;20042;-73
2022/06/23 10:03:43;;;;;;;24.33;4.20;;;;;;;;;;4996684;28;20112;-72
2022/06/23 10:06:18;;;;;;;28.23;5.15;;;;;;;;;;5011163;28;20133;-72
2022/06/23 10:09:00;;;;;;;24.90;4.78;;;;;;;;;;5013302;28;20050;-70
2022/06/23 10:11:38;;;;;;;27.20;5.07;;;;;;;;;;5013595;28;20034;-71
2022/06/23 10:14:34;;;;;;;25.70;5.05;;;;;;;;;;5012966;28;20038;-70
2022/06/23 10:17:39;;;;;;;23.33;4.18;;;;;;;;;;5010802;28;20030;-69
2022/06/23 10:20:20;;;;;;;28.05;5.03;;;;;;;;;;5011404;28;20353;-69
2022/06/23 10:23:14;;;;;;;20.58;3.90;;;;;;;;;;4994339;28;20481;-71
2022/06/23 10:26:04;;;;;;;27.50;5.00;;;;;;;;;;5005281;28;20461;-71
2022/06/23 10:28:53;;;;;;;28.30;5.50;;;;;;;;;;5013204;28;20029;-70
2022/06/23 10:31:28;;;;;;;25.58;4.65;;;;;;;;;;5012869;28;20072;-71
2022/06/23 10:34:17;;;;;;;26.23;4.35;;;;;;;;;;4999860;28;20046;-69
2022/06/23 10:36:46;;;;;;;27.98;5.50;;;;;;;;;;4997248;28;20030;-69
2022/06/23 10:39:35;;;;;;;30.42;5.47;;;;;;;;;;5012183;28;20025;-71
2022/06/23 10:42:37;;;;;;;35.75;5.57;;;;;;;;;;5012800;28;20061;-71
2022/06/23 10:45:47;;;;;;;25.42;4.80;;;;;;;;;;5007998;28;20042;-72
2022/06/23 10:48:50;;;;;;;29.25;4.72;;;;;;;;;;4993475;28;20096;-72
2022/06/23 10:51:50;;;;;;;20.45;5.20;;;;;;;;;;5010298;28;20132;-71
2022/06/23 10:54:43;;;;;;;24.65;4.20;;;;;;;;;;5010596;28;20112;-72
2022/06/23 10:57:30;;;;;;;23.15;4.85;;;;;;;;;;5012099;28;20396;-71
2022/06/23 11:00:05;;;;;;;28.00;5.32;;;;;;;;;;5002766;28;20030;-72
2022/06/23 11:03:08;;;;;;;30.60;4.80;;;;;;;;;;5011020;28;20133;-74
2022/06/23 11:06:03;;;;;;;28.70;5.20;;;;;;;;;;5011136;28;20049;-74
2022/06/23 11:08:53;;;;;;;31.25;5.18;;;;;;;;;;5010284;28;20046;-71
2022/06/23 11:11:41;;;;;;;35.55;6.75;;;;;;;;;;5012314;28;20485;-71
2022/06/23 11:14:23;;;;;;;31.85;5.60;;;;;;;;;;5012488;28;20088;-73
2022/06/23 11:17:01;;;;;;;22.70;5.20;;;;;;;;;;5012997;28;20568;-72
2022/06/23 11:19:53;;;;;;;19.65;4.90;;;;;;;;;;5013337;28;20029;-75
2022/06/23 11:22:55;;;;;;;24.58;4.35;;;;;;;;;;5012983;28;20077;-72
2022/06/23 11:26:09;;;;;;;27.50;5.07;;;;;;;;;;5012918;28;20113;-72
2022/06/23 11:28:35;;;;;;;24.27;5.00;;;;;;;;;;5010932;28;20045;-74
2022/06/23 11:31:19;;;;;;;29.58;5.38;;;;;;;;;;5013101;28;20037;-73
2022/06/23 11:33:58;;;;;;;24.38;5.07;;;;;;;;;;5011084;28;20045;-72
2022/06/23 11:36:53;;;;;;;29.17;5.57;;;;;;;;;;5011256;28;20042;-72
2022/06/23 11:39:42;;;;;;;20.48;5.38;;;;;;;;;;5011913;28;20062;-72
2022/06/23 11:42:19;;;;;;;23.17;4.40;;;;;;;;;;5013005;28;20030;-73
2022/06/23 11:45:14;;;;;;;31.00;5.53;;;;;;;;;;5013336;28;20041;-69
2022/06/23 11:48:12;;;;;;;28.42;5.07;;;;;;;;;;5012298;28;20111;-73
2022/06/23 11:50:57;;;;;;;27.48;4.85;;;;;;;;;;5012567;28;20042;-71
2022/06/23 11:53:48;;;;;;;27.35;5.00;;;;;;;;;;5012882;28;20045;-71
2022/06/23 11:56:35;;;;;;;28.33;4.95;;;;;;;;;;5013110;28;20034;-70
2022/06/23 11:59:03;;;;;;;28.83;5.18;;;;;;;;;;5013133;28;20052;-69
2022/06/23 12:01:30;;;;;;;30.08;5.47;;;;;;;;;;5012823;28;20040;-70
2022/06/23 12:04:03;;;;;;;33.83;5.32;;;;;;;;;;5012991;28;20066;-70
2022/06/23 12:06:53;;;;;;;29.10;5.20;;;;;;;;;;5013106;28;20393;-72
2022/06/23 12:09:57;;;;;;;30.23;4.78;;;;;;;;;;5012786;28;20038;-73
2022/06/23 12:12:23;;;;;;;26.52;4.97;;;;;;;;;;5011738;28;20050;-73
2022/06/23 12:14:51;;;;;;;27.98;5.10;;;;;;;;;;5012764;28;20040;-73
2022/06/23 12:17:43;;;;;;;31.42;5.90;;;;;;;;;;5012918;28;20065;-74
2022/06/23 12:20:14;;;;;;;;;;;;;;;;;;5013289;28;20041;-70
2022/06/23 12:22:49;;;;;;;28.58;4.93;;;;;;;;;;5012822;28;19918;-73
2022/06/23 12:25:30;;;;;;;25.02;5.00;;;;;;;;;;5012942;28;20394;-70
2022/06/23 12:28:16;;;;;;;25.05;5.25;;;;;;;;;;5012672;28;20062;-69
2022/06/23 12:31:26;;;;;;;37.58;6.78;;;;;;;;;;5012625;28;20387;-72
2022/06/23 12:34:01;;;;;;;26.08;5.20;;;;;;;;;;5012466;28;20569;-74
2022/06/23 12:36:55;;;;;;;24.25;5.32;;;;;;;;;;5011057;28;20457;-69
2022/06/23 12:39:41;;;;;;;27.42;5.43;;;;;;;;;;4999298;28;20050;-69
2022/06/23 12:42:30;;;;;;;31.77;5.70;;;;;;;;;;5015410;28;20038;-71
2022/06/23 12:45:33;;;;;;;33.92;5.88;;;;;;;;;;5016191;28;20404;-69
2022/06/23 12:48:02;;;;;;;22.83;4.60;;;;;;;;;;5016271;28;20042;-69
2022/06/23 12:51:09;;;;;;;32.72;5.10;;;;;;;;;;5016102;28;20026;-69
2022/06/23 12:53:54;;;;;;;25.73;5.10;;;;;;;;;;5015863;28;20041;-69
2022/06/23 12:56:53;;;;;;;25.92;5.15;;;;;;;;;;5015854;28;20030;-71
2022/06/23 12:59:31;;;;;;;25.80;5.13;;;;;;;;;;5015861;28;20044;-70
2022/06/23 13:02:07;;;;;;;25.85;5.65;;;;;;;;;;5015627;28;20050;-69
2022/06/23 13:04:45;;;;;;;25.42;4.40;;;;;;;;;;5015869;28;20519;-70
2022/06/23 13:07:39;;;;;;;20.83;4.65;;;;;;;;;;5015873;28;20040;-68
2022/06/23 13:10:27;;;;;;;27.88;4.70;;;;;;;;;;5015580;28;20474;-74
2022/06/23 13:13:04;;;;;;;24.35;5.22;;;;;;;;;;5015818;28;20026;-73
2022/06/23 13:15:39;;;;;;;30.83;6.22;;;;;;;;;;5015408;28;20485;-73
2022/06/23 13:18:30;;;;;;;32.63;5.68;;;;;;;;;;5015272;28;20026;-74
2022/06/23 13:21:05;;;;;;;27.17;4.93;;;;;;;;;;5015342;28;20034;-72
2022/06/23 13:23:40;;;;;;;30.98;5.57;;;;;;;;;;5015472;28;20037;-71
2022/06/23 13:26:20;;;;;;;42.55;5.65;;;;;;;;;;5015574;28;20038;-75
2022/06/23 13:28:47;;;;;;;30.95;5.53;;;;;;;;;;5015588;28;20056;-70
2022/06/23 13:31:39;;;;;;;29.42;5.72;;;;;;;;;;5015558;28;20488;-73
2022/06/23 13:34:13;;;;;;;42.15;5.80;;;;;;;;;;5014923;28;20065;-74
2022/06/23 13:36:43;;;;;;;29.15;5.57;;;;;;;;;;5015327;28;20026;-72
2022/06/23 13:39:43;;;;;;;46.00;5.38;;;;;;;;;;5015479;28;20053;-74
2022/06/23 13:42:19;;;;;;;30.00;5.68;;;;;;;;;;5013636;28;20094;-75
2022/06/23 13:45:03;;;;;;;38.22;6.53;;;;;;;;;;5014537;28;20054;-75
2022/06/23 13:48:01;;;;;;;38.03;5.72;;;;;;;;;;5009014;28;20071;-70
2022/06/23 13:50:37;;;;;;;33.80;5.13;;;;;;;;;;4990215;28;20109;-71
2022/06/23 13:53:18;;;;;;;34.08;6.05;;;;;;;;;;4995123;28;20031;-73
2022/06/23 13:55:50;;;;;;;26.80;5.40;;;;;;;;;;4995095;28;20042;-74
2022/06/23 13:58:16;;;;;;;29.55;5.00;;;;;;;;;;4995027;28;20436;-74
2022/06/23 14:01:09;;;;;;;27.50;5.50;;;;;;;;;;4995173;28;20022;-74
2022/06/23 14:03:56;;;;;;;25.10;5.05;;;;;;;;;;4995398;28;22109;-71
2022/06/23 14:06:35;;;;;;;29.65;5.30;;;;;;;;;;5013328;28;20033;-71
2022/06/23 14:09:28;;;;;;;33.97;5.30;;;;;;;;;;5014711;28;20034;-72
2022/06/23 14:12:13;;;;;;;25.58;4.95;;;;;;;;;;5014203;28;20435;-70
2022/06/23 14:14:53;;;;;;;30.92;4.82;;;;;;;;;;5015017;28;20044;-71
2022/06/23 14:17:44;;;;;;;28.10;5.03;;;;;;;;;;5014711;28;20088;-70
2022/06/23 14:20:17;;;;;;;33.17;5.78;;;;;;;;;;5014121;28;20080;-70
2022/06/23 14:22:48;;;;;;;32.90;5.03;;;;;;;;;;5005819;28;20382;-73
2022/06/23 14:25:23;;;;;;;30.23;5.13;;;;;;;;;;4995058;28;20043;-70
2022/06/23 14:27:51;;;;;;;29.27;5.30;;;;;;;;;;4994936;28;20026;-69
2022/06/23 14:30:38;;;;;;;29.38;5.88;;;;;;;;;;4994879;28;20049;-70
2022/06/23 14:33:16;;;;;;;21.50;4.30;;;;;;;;;;4994911;28;20038;-72
2022/06/23 14:36:24;;;;;;;29.65;5.82;;;;;;;;;;4995029;28;20093;-70
2022/06/23 14:38:56;;;;;;;28.98;5.68;;;;;;;;;;4998400;28;20042;-69
2022/06/23 14:41:37;;;;;;;39.45;5.97;;;;;;;;;;4995119;28;20046;-69
2022/06/23 14:44:40;;;;;;;26.40;4.97;;;;;;;;;;4993311;28;20046;-70
2022/06/23 14:47:39;;;;;;;31.88;6.13;;;;;;;;;;4994650;28;20481;-73
2022/06/23 14:50:19;;;;;;;27.60;4.93;;;;;;;;;;4994960;28;20038;-74
2022/06/23 14:53:08;;;;;;;34.63;4.80;;;;;;;;;;4994937;28;20034;-74
2022/06/23 14:55:46;;;;;;;30.45;5.30;;;;;;;;;;4994809;28;20034;-73
2022/06/23 14:58:25;;;;;;;30.20;5.35;;;;;;;;;;4994473;28;20397;-75
2022/06/23 15:01:04;;;;;;;28.45;4.80;;;;;;;;;;4994444;28;20057;-74
2022/06/23 15:03:36;;;;;;;26.75;4.82;;;;;;;;;;4997036;28;20036;-70
2022/06/23 15:06:07;;;;;;;26.98;5.72;;;;;;;;;;5013864;28;20044;-73
2022/06/23 15:09:13;;;;;;;24.92;4.38;;;;;;;;;;5013841;28;20052;-74
2022/06/23 15:11:47;;;;;;;25.67;4.82;;;;;;;;;;5014716;28;20097;-72
2022/06/23 15:14:35;;;;;;;25.20;4.45;;;;;;;;;;5013387;28;20516;-73
2022/06/23 15:17:15;;;;;;;36.58;5.70;;;;;;;;;;5013241;28;20026;-74
2022/06/23 15:19:51;;;;;;;25.92;5.35;;;;;;;;;;5013493;28;20037;-72
2022/06/23 15:25:32;;;;;;;31.17;4.80;;;;;;;;;;5013447;28;20052;-72
2022/06/23 15:28:26;;;;;;;35.40;5.22;;;;;;;;;;5013041;28;20040;-73
2022/06/23 15:30:52;;;;;;;27.17;4.40;;;;;;;;;;5012891;28;20045;-72
2022/06/23 15:33:29;;;;;;;35.88;5.65;;;;;;;;;;5011700;28;20038;-74
2022/06/23 15:35:55;;;;;;;26.13;4.78;;;;;;;;;;5013194;28;20041;-69
2022/06/23 15:38:50;;;;;;;36.90;5.85;;;;;;;;;;5012903;28;20034;-71
2022/06/23 15:41:40;;;;;;;27.60;5.28;;;;;;;;;;5032309;28;20539;-74
2022/06/23 15:44:46;;;;;;;29.98;5.30;;;;;;;;;;5032643;28;20064;-70
2022/06/23 15:47:39;;;;;;;37.92;5.68;;;;;;;;;;5029831;28;20037;-71
2022/06/23 15:50:32;;;;;;;35.20;5.75;;;;;;;;;;5032055;28;20025;-70
2022/06/23 15:53:03;;;;;;;25.08;5.07;;;;;;;;;;5027029;28;20544;-73
2022/06/23 15:55:53;;;;;;;30.10;5.20;;;;;;;;;;5012275;28;20468;-74
2022/06/23 15:58:28;;;;;;;24.17;5.05;;;;;;;;;;5015857;28;20030;-73
2022/06/23 16:00:56;;;;;;;26.73;4.70;;;;;;;;;;5016509;28;20396;-73
2022/06/23 16:03:26;;;;;;;33.55;5.45;;;;;;;;;;5012630;28;20495;-71
2022/06/23 16:06:00;;;;;;;29.98;5.43;;;;;;;;;;5012576;28;20104;-72
2022/06/23 16:08:34;;;;;;;25.23;5.00;;;;;;;;;;5012541;28;20037;-69